Latest Weather Observations for Viewbank

IDV60901

Issued at 7:31 pm EST Monday 20 May 2019 (issued every 10 minutes, with the page automatically refreshed every 10 minutes)

About weather observations | Map of Melbourne area stations | Latest observations for Melbourne area | Other Formats
Station Details ID: 086068 Name: VIEWBANK Lat: -37.74 Lon: 145.10 Height: 66.1 m
Data from the previous 72 hours. | See also: Recent months at Viewbank
Date/Time
EST
Temp
°C
App
Temp
°C
Dew
Point
°C
Rel
Hum
%
Delta-T
°C
Wind Press
QNH
hPa
Press
MSL
hPa
Rain since
9am
mm
Dir  Spd
km/h
Gust
km/h
Spd
kts
Gust
kts
20/07:30pm 16.5 14.6 11.9 74 2.5 N 13 20 7 11 1020.0 1020.0 0.0
20/07:00pm 16.4 13.7 11.8 74 2.5 N 17 26 9 14 1019.6 1019.6 0.0
20/06:30pm 16.8 14.5 11.7 72 2.8 NNW 15 22 8 12 1019.5 1019.5 0.0
20/06:00pm 17.3 15.4 11.8 70 3.0 NNW 13 19 7 10 1019.4 1019.4 0.0
20/05:30pm 17.4 15.0 11.4 68 3.3 N 15 22 8 12 1019.0 1019.0 0.0
20/05:00pm 18.0 15.2 11.3 65 3.6 N 17 30 9 16 1018.7 1018.7 0.0
20/04:30pm 18.5 16.5 11.6 64 3.8 NNE 13 20 7 11 1018.4 1018.4 0.0
20/04:00pm 18.5 16.2 11.6 64 3.8 NNE 15 30 8 16 1018.3 1018.3 0.0
20/03:30pm 18.8 15.7 11.6 63 4.0 N 19 33 10 18 1018.6 1018.6 0.0
20/03:00pm 18.2 16.7 12.0 67 3.4 NNE 11 24 6 13 1018.8 1018.8 0.0
20/02:30pm 18.5 15.5 12.0 66 3.6 NNE 19 30 10 16 1018.4 1018.4 0.0
20/02:00pm 19.3 16.4 12.3 64 3.9 N 19 35 10 19 1018.4 1018.4 0.0
20/01:30pm 19.7 16.7 12.5 63 4.0 N 20 39 11 21 1018.4 1018.4 0.0
20/01:00pm 19.8 17.4 12.6 63 4.1 NNE 17 30 9 16 1018.6 1018.6 0.0
20/12:30pm 17.4 16.5 12.5 73 2.7 NNE 9 17 5 9 1019.1 1019.1 0.0
20/12:00pm 16.5 15.3 11.6 73 2.7 NE 9 19 5 10 1019.6 1019.6 0.0
20/11:30am 16.5 14.4 11.2 71 2.9 NNE 13 30 7 16 1019.8 1019.8 0.0
20/11:00am 17.5 13.5 10.4 63 3.8 N 22 37 12 20 1020.4 1020.4 0.0
20/10:30am 18.2 16.2 10.3 60 4.2 NE 11 39 6 21 1020.6 1020.6 0.0
20/10:00am 17.7 16.1 10.1 61 4.0 NE 9 17 5 9 1021.2 1021.2 0.0
20/09:30am 18.0 15.2 9.9 59 4.3 NNE 15 35 8 19 1021.4 1021.4 0.0
20/09:00am 18.1 16.0 9.7 58 4.4 NNE 11 20 6 11 1021.9 1021.9 0.4
20/08:30am 18.1 16.3 9.5 57 4.5 N 9 22 5 12 1021.9 1021.9 0.4
20/08:00am 17.2 15.7 9.1 59 4.2 NNE 7 15 4 8 1021.6 1021.6 0.4
20/07:30am 17.1 15.4 8.5 57 4.4 NE 7 13 4 7 1021.2 1021.2 0.4
20/07:00am 16.3 14.5 9.3 63 3.6 NE 9 15 5 8 1020.8 1020.8 0.4
20/06:30am 15.2 12.9 9.1 67 3.1 ENE 11 15 6 8 1021.0 1021.0 0.2
20/06:00am 14.9 14.3 8.8 67 3.1 WSW 2 7 1 4 1021.1 1021.1 0.0
20/05:30am 13.7 12.7 7.5 66 3.1 NNE 2 9 1 5 1021.2 1021.2 0.0
20/05:00am 14.4 13.2 8.1 66 3.1 NE 4 7 2 4 1021.2 1021.2 0.0
20/04:30am 14.3 12.3 8.5 68 2.9 ENE 9 13 5 7 1021.3 1021.3 0.0
20/04:00am 13.1 10.6 8.2 72 2.4 ENE 11 17 6 9 1021.5 1021.5 0.0
20/03:30am 12.9 11.1 8.0 72 2.4 ENE 7 9 4 5 1021.8 1021.8 0.0
20/03:00am 12.4 9.1 7.9 74 2.2 ENE 15 19 8 10 1022.0 1022.0 0.0
20/02:30am 12.3 9.3 7.6 73 2.3 ENE 13 17 7 9 1022.4 1022.4 0.0
20/02:00am 13.5 11.3 7.9 69 2.8 NE 9 15 5 8 1022.7 1022.7 0.0
20/01:30am 12.2 10.0 7.9 75 2.1 NE 9 13 5 7 1023.0 1023.0 0.0
20/01:00am 11.6 10.0 8.1 79 1.7 NE 6 11 3 6 1023.3 1023.3 0.0
20/12:30am 11.9 10.2 8.4 79 1.7 NE 7 9 4 5 1023.6 1023.6 0.0
20/12:00am 11.7 10.0 8.4 80 1.6 ENE 7 9 4 5 1023.8 1023.9 0.0
 
Date/Time
EST
Temp
°C
App
Temp
°C
Dew
Point
°C
Rel
Hum
%
Delta-T
°C
Wind Press
QNH
hPa
Press
MSL
hPa
Rain since
9am
mm
Dir  Spd
km/h
Gust
km/h
Spd
kts
Gust
kts
19/11:30pm 11.6 9.9 8.5 81 1.5 ENE 7 9 4 5 1024.0 1024.1 0.0
19/11:00pm 11.6 9.6 8.6 82 1.5 ENE 9 11 5 6 1024.2 1024.3 0.0
19/10:30pm 11.6 9.2 8.5 81 1.5 ENE 11 13 6 7 1024.4 1024.5 0.0
19/10:00pm 11.9 9.5 8.6 80 1.6 ENE 11 13 6 7 1024.6 1024.7 0.0
19/09:30pm 12.8 10.4 8.5 75 2.1 ENE 11 15 6 8 1024.9 1025.0 0.0
19/09:00pm 13.5 11.5 8.6 72 2.4 NE 9 11 5 6 1025.1 1025.2 0.0
19/08:30pm 14.1 12.6 8.5 69 2.8 NE 6 7 3 4 1025.2 1025.3 0.0
19/08:00pm 13.9 12.4 8.5 70 2.7 NE 6 9 3 5 1025.4 1025.5 0.0
19/07:30pm 14.5 13.4 8.5 67 3.0 NNE 4 9 2 5 1025.3 1025.4 0.0
19/07:00pm 15.2 14.5 8.4 64 3.4 NNE 2 7 1 4 1025.3 1025.4 0.0
19/06:30pm 15.7 15.3 8.4 62 3.7 CALM 0 6 0 3 1025.3 1025.4 0.0
19/06:00pm 16.7 15.7 8.7 59 4.1 E 4 9 2 5 1025.2 1025.3 0.0
19/05:30pm 17.4 16.4 8.8 57 4.5 E 4 7 2 4 1025.1 1025.2 0.0
19/05:00pm 18.4 17.2 8.1 51 5.3 ENE 4 9 2 5 1025.1 1025.2 0.0
19/04:30pm 19.7 17.6 8.1 47 6.0 ENE 9 19 5 10 1025.1 1025.2 0.0
19/04:00pm 19.4 16.9 8.1 48 5.8 E 11 22 6 12 1025.2 1025.3 0.0
19/03:30pm 20.7 18.5 8.0 44 6.6 E 9 19 5 10 1025.3 1025.4 0.0
19/03:00pm 20.9 18.7 7.9 43 6.7 NE 9 20 5 11 1025.2 1025.3 0.0
19/02:30pm 21.5 19.3 7.7 41 7.2 NE 9 17 5 9 1025.5 1025.6 0.0
19/02:00pm 21.4 19.3 8.3 43 6.8 ENE 9 19 5 10 1025.8 1025.9 0.0
19/01:30pm 20.8 19.1 8.4 45 6.5 NNE 7 13 4 7 1026.1 1026.2 0.0
19/01:00pm 20.3 17.3 7.7 44 6.5 N 13 22 7 12 1026.4 1026.5 0.0
19/12:30pm 21.2 18.1 7.4 41 7.1 NNE 13 28 7 15 1026.8 1026.9 0.0
19/12:00pm 21.0 18.6 8.6 45 6.5 NNE 11 22 6 12 1027.4 1027.5 0.0
19/11:30am 19.5 18.1 9.4 52 5.4 ENE 7 15 4 8 1028.1 1028.1 0.0
19/11:00am 16.7 15.4 10.1 65 3.5 E 7 13 4 7 1028.6 1028.6 0.0
19/10:30am 14.9 13.2 9.7 71 2.7 ENE 9 11 5 6 1028.8 1028.8 0.0
19/10:00am 12.9 11.1 9.4 79 1.8 ENE 9 11 5 6 1029.0 1029.0 0.0
19/09:30am 11.3 9.4 9.0 86 1.1 ENE 9 13 5 7 1029.1 1029.1 0.0
19/09:00am 10.2 7.9 9.0 92 0.6 ENE 11 13 6 7 1029.1 1029.1 0.0
19/08:30am 9.0 7.4 8.7 98 0.1 ENE 7 9 4 5 1029.1 1029.1 0.0
19/08:00am 8.5 6.4 8.4 99 0.0 ENE 9 13 5 7 1028.8 1028.8 0.0
19/07:30am 8.1 6.9 8.0 99 0.0 ENE 4 9 2 5 1028.7 1028.7 0.0
19/07:00am 8.1 6.5 8.0 99 0.0 ENE 6 9 3 5 1028.5 1028.5 0.0
19/06:30am 8.1 7.6 8.0 99 0.0 CALM 0 0 0 0 1028.5 1028.5 0.0
19/06:00am 7.7 6.8 7.6 99 0.0 ENE 2 7 1 4 1028.3 1028.3 0.0
19/05:30am 7.4 5.4 7.3 99 0.0 ENE 7 11 4 6 1028.3 1028.3 0.0
19/05:00am 7.2 5.4 7.1 99 0.0 NE 6 7 3 4 1028.5 1028.5 0.0
19/04:30am 6.5 5.7 6.4 99 0.0 CALM 0 0 0 0 1028.4 1028.4 0.0
19/04:00am 6.4 5.6 6.3 99 0.0 CALM 0 6 0 3 1028.5 1028.5 0.0
19/03:30am 6.8 5.7 6.7 99 0.0 NE 2 6 1 3 1028.5 1028.5 0.0
19/03:00am 6.7 5.9 6.6 99 0.0 CALM 0 0 0 0 1028.6 1028.6 0.0
19/02:30am 6.8 6.0 6.7 99 0.0 CALM 0 0 0 0 1028.5 1028.5 0.0
19/02:00am 7.0 5.9 6.9 99 0.0 ENE 2 6 1 3 1028.8 1028.8 0.0
19/01:30am 7.5 6.9 7.4 99 0.0 CALM 0 0 0 0 1028.9 1028.9 0.0
19/01:00am 7.9 7.4 7.8 99 0.0 CALM 0 0 0 0 1029.2 1029.2 0.0
19/12:30am 8.0 6.8 7.9 99 0.0 ENE 4 7 2 4 1029.3 1029.3 0.0
19/12:00am 8.4 7.6 8.3 99 0.0 N 2 9 1 5 1029.5 1029.5 0.0
 
Date/Time
EST
Temp
°C
App
Temp
°C
Dew
Point
°C
Rel
Hum
%
Delta-T
°C
Wind Press
QNH
hPa
Press
MSL
hPa
Rain since
9am
mm
Dir  Spd
km/h
Gust
km/h
Spd
kts
Gust
kts
18/11:30pm 9.0 7.7 7.6 91 0.7 N 4 9 2 5 1029.7 1029.7 0.0
18/11:00pm 9.6 9.2 8.4 92 0.6 CALM 0 6 0 3 1029.7 1029.7 0.0
18/10:30pm 10.6 9.9 8.5 87 1.0 N 2 7 1 4 1029.8 1029.8 0.0
18/10:00pm 10.7 9.8 7.6 81 1.5 N 2 6 1 3 1030.0 1030.0 0.0
18/09:30pm 12.1 10.5 7.8 75 2.1 NNE 6 9 3 5 1029.8 1029.8 0.0
18/09:00pm 12.8 11.6 8.1 73 2.3 N 4 9 2 5 1029.5 1029.5 0.0
18/08:30pm 12.8 11.7 8.3 74 2.2 NNE 4 7 2 4 1029.6 1029.6 0.0
18/08:00pm 13.8 13.0 8.2 69 2.8 NE 2 9 1 5 1029.4 1029.4 0.0
18/07:30pm 14.0 12.4 8.6 70 2.7 ESE 7 9 4 5 1029.4 1029.4 0.0
18/07:00pm 14.8 14.1 8.7 67 3.1 NW 2 7 1 4 1029.3 1029.3 0.0
18/06:30pm 15.4 14.8 7.4 59 4.0 CALM 0 9 0 5 1028.9 1028.9 0.0
18/06:00pm 17.9 15.6 7.3 50 5.3 NNW 9 11 5 6 1028.2 1028.2 0.0
18/05:30pm 18.3 16.5 7.1 48 5.6 NE 6 9 3 5 1027.6 1027.7 0.0
18/05:00pm 19.3 18.6 7.1 45 6.1 CALM 0 0 0 0 1027.3 1027.4 0.0
18/04:30pm 20.5 19.4 6.8 41 7.0 ENE 2 9 1 5 1027.4 1027.5 0.0
18/04:00pm 21.1 19.2 6.6 39 7.3 E 6 9 3 5 1027.3 1027.4 0.0
18/03:30pm 21.4 19.3 6.5 38 7.6 ENE 7 11 4 6 1027.5 1027.6 0.0
18/03:00pm 21.8 19.9 6.9 38 7.6 NNE 6 11 3 6 1027.6 1027.7 0.0
18/02:30pm 21.4 18.9 6.5 38 7.6 NNW 9 17 5 9 1027.8 1027.9 0.0
18/02:00pm 21.1 18.1 5.9 37 7.6 NNE 11 22 6 12 1028.1 1028.1 0.0
18/01:30pm 21.2 18.1 5.6 36 7.8 N 11 20 6 11 1028.5 1028.5 0.0
18/01:00pm 21.0 19.5 8.3 44 6.6 ENE 6 11 3 6 1029.0 1029.0 0.0
18/12:30pm 18.3 16.7 8.6 53 5.0 ESE 7 11 4 6 1029.3 1029.3 0.0
18/12:00pm 17.2 16.3 9.1 59 4.2 NNE 4 7 2 4 1030.1 1030.1 0.0
18/11:30am 15.4 14.7 8.6 64 3.5 NNE 2 7 1 4 1030.5 1030.5 0.0
18/11:00am 13.7 12.4 9.2 74 2.3 NNE 6 9 3 5 1030.6 1030.6 0.0
18/10:30am 11.9 10.6 9.3 84 1.3 NE 6 9 3 5 1030.8 1030.8 0.0
18/10:00am 10.6 9.4 9.5 93 0.5 NE 6 7 3 4 1031.0 1031.0 0.0
18/09:30am 9.3 8.0 9.2 99 0.0 NE 6 9 3 5 1031.0 1031.0 0.0
18/09:00am 7.1 6.0 7.1 100 0.0 NNE 2 6 1 3 1031.0 1031.0 0.0
18/08:30am 5.6 4.2 5.6 100 0.0 NNE 2 7 1 4 1030.8 1030.8 0.0
18/08:00am 4.4 3.2 4.4 100 0.0 CALM 0 6 0 3 1030.6 1030.6 0.0
18/07:30am 4.0 2.7 4.0 100 0.0 CALM 0 0 0 0 1030.1 1030.1 0.0
18/07:00am 3.8 2.4 3.8 100 0.0 CALM 0 6 0 3 1029.9 1029.9 0.0
18/06:30am 3.7 2.3 3.7 100 0.0 CALM 0 0 0 0 1029.7 1029.7 0.0
18/06:00am 4.1 2.4 4.1 100 0.0 NNE 2 6 1 3 1029.4 1029.4 0.0
18/05:30am 4.0 2.7 4.0 100 0.0 CALM 0 2 0 1 1029.4 1029.4 0.0
18/05:00am 4.5 2.9 4.5 100 0.0 NNE 2 6 1 3 1029.5 1029.5 0.0
18/04:30am 4.8 2.9 4.8 100 0.0 NNE 4 7 2 4 1029.2 1029.2 0.0
18/04:00am 4.9 3.8 4.9 100 0.0 CALM 0 0 0 0 1029.0 1029.0 0.0
18/03:30am 5.0 3.1 5.0 100 0.0 NNE 4 7 2 4 1028.9 1028.9 0.0
18/03:00am 5.7 4.7 5.7 100 0.0 CALM 0 6 0 3 1029.0 1029.0 0.0
18/02:30am 5.9 5.0 5.9 100 0.0 CALM 0 4 0 2 1029.1 1029.1 0.0
18/02:00am 6.2 5.3 6.2 100 0.0 CALM 0 4 0 2 1028.9 1028.9 0.0
18/01:30am 6.5 5.7 6.5 100 0.0 CALM 0 4 0 2 1028.9 1028.9 0.0
18/01:00am 7.1 6.4 7.1 100 0.0 CALM 0 0 0 0 1028.8 1028.8 0.0
18/12:30am 7.0 5.5 6.9 99 0.0 NNE 4 7 2 4 1028.7 1028.7 0.0
18/12:00am 7.5 6.9 7.4 99 0.0 CALM 0 4 0 2 1028.8 1028.8 0.0
 
Date/Time
EST
Temp
°C
App
Temp
°C
Dew
Point
°C
Rel
Hum
%
Delta-T
°C
Wind Press
QNH
hPa
Press
MSL
hPa
Rain since
9am
mm
Dir  Spd
km/h
Gust
km/h
Spd
kts
Gust
kts
17/11:30pm 7.9 7.0 7.8 99 0.0 NNE 2 7 1 4 1028.8 1028.8 0.0
17/11:00pm 8.2 7.4 8.1 99 0.0 W 2 7 1 4 1029.1 1029.1 0.0
17/10:30pm 8.9 8.6 8.8 99 0.0 CALM 0 6 0 3 1029.1 1029.1 0.0
17/10:00pm 8.9 8.6 8.8 99 0.0 CALM 0 0 0 0 1029.0 1029.0 0.0
17/09:30pm 9.4 9.3 9.3 99 0.0 CALM 0 0 0 0 1028.7 1028.7 0.0
17/09:00pm 9.8 9.6 9.0 95 0.4 CALM 0 0 0 0 1028.4 1028.4 0.0
17/08:30pm 10.4 10.3 9.3 93 0.5 CALM 0 0 0 0 1028.1 1028.1 0.0
17/08:00pm 11.2 10.8 8.4 83 1.4 CALM 0 0 0 0 1027.8 1027.9 0.0

Latest Capital City Observations: Canberra | Sydney | Melbourne | Brisbane | Adelaide | Perth | Hobart | Darwin

Other formats

Comma delimited format used in spreadsheet applications
http://www.bom.gov.au/fwo/IDV60901/IDV60901.95874.axf

JavaScript Object Notation format (JSON) in row-major order
http://www.bom.gov.au/fwo/IDV60901/IDV60901.95874.json

Data quality

Most of these data are generated automatically and are frequently updated. Quality checks on data are not normally performed. It is possible for incorrect values to appear. Refer to information at About Latest Weather Observations and please check the disclaimer before using these data.